WAT5464 LGAV-LWSK
Flight info
| Callsign | WAT5464 |
|---|---|
| Flight time | 0h 54m |
| Altitude | 36000 |
| Route | KRO UT162 NEVRA UT514 TSL UN130 TALAS DCT PEP |
| Aircraft | E195/M-SDE3GILORVW/S |
Departure
| Time | 2026-04-20 02:50 |
|---|---|
| Airport | Athens Eleftherios Venizelos International Airport (LGAV) |
Arrival
| Time | 2026-04-20 03:44 |
|---|---|
| Airport | Skopje International Airport (LWSK) |
| Time | Latitude | Longitude | Altitude | Speed | Heading |
|---|---|---|---|---|---|
| 2026-04-20 01:56 | 37.93604 | 23.94840 | 299 ft | 0 kts | 307° |
| 2026-04-20 02:38 | 37.93592 | 23.94860 | 300 ft | 4 kts | 302° |
| 2026-04-20 02:38 | 37.93579 | 23.94890 | 299 ft | 4 kts | 290° |
| 2026-04-20 02:38 | 37.93574 | 23.94921 | 301 ft | 4 kts | 259° |
| 2026-04-20 02:38 | 37.93580 | 23.94941 | 299 ft | 1 kts | 217° |
| 2026-04-20 02:39 | 37.93583 | 23.94944 | 299 ft | 0 kts | 217° |
| 2026-04-20 02:41 | 37.93579 | 23.94940 | 299 ft | 3 kts | 217° |
| 2026-04-20 02:41 | 37.93553 | 23.94914 | 301 ft | 7 kts | 217° |
| 2026-04-20 02:41 | 37.93497 | 23.94861 | 301 ft | 13 kts | 215° |
| 2026-04-20 02:42 | 37.93417 | 23.94788 | 301 ft | 15 kts | 218° |
| 2026-04-20 02:42 | 37.93333 | 23.94703 | 299 ft | 16 kts | 217° |
| 2026-04-20 02:42 | 37.93242 | 23.94618 | 300 ft | 17 kts | 217° |
| 2026-04-20 02:42 | 37.93160 | 23.94522 | 300 ft | 14 kts | 254° |
| 2026-04-20 02:43 | 37.93207 | 23.94417 | 301 ft | 15 kts | 308° |
| 2026-04-20 02:43 | 37.93270 | 23.94311 | 300 ft | 16 kts | 306° |
| 2026-04-20 02:43 | 37.93248 | 23.94199 | 301 ft | 15 kts | 215° |
| 2026-04-20 02:43 | 37.93162 | 23.94117 | 301 ft | 16 kts | 216° |
| 2026-04-20 02:44 | 37.93093 | 23.94021 | 300 ft | 11 kts | 275° |
| 2026-04-20 02:44 | 37.93131 | 23.93938 | 301 ft | 13 kts | 309° |
| 2026-04-20 02:44 | 37.93171 | 23.93875 | 300 ft | 15 kts | 307° |
| 2026-04-20 02:44 | 37.93235 | 23.93767 | 300 ft | 16 kts | 307° |
| 2026-04-20 02:45 | 37.93304 | 23.93653 | 301 ft | 17 kts | 306° |
| 2026-04-20 02:45 | 37.93372 | 23.93532 | 301 ft | 17 kts | 295° |
| 2026-04-20 02:45 | 37.93318 | 23.93424 | 300 ft | 15 kts | 217° |
| 2026-04-20 02:45 | 37.93226 | 23.93335 | 299 ft | 18 kts | 217° |
| 2026-04-20 02:46 | 37.93124 | 23.93238 | 300 ft | 19 kts | 216° |
| 2026-04-20 02:46 | 37.93017 | 23.93138 | 300 ft | 19 kts | 216° |
| 2026-04-20 02:46 | 37.92908 | 23.93036 | 301 ft | 20 kts | 216° |
| 2026-04-20 02:46 | 37.92798 | 23.92933 | 300 ft | 20 kts | 216° |
| 2026-04-20 02:47 | 37.92688 | 23.92826 | 300 ft | 20 kts | 217° |
| 2026-04-20 02:47 | 37.92577 | 23.92718 | 300 ft | 20 kts | 217° |
| 2026-04-20 02:47 | 37.92461 | 23.92611 | 302 ft | 21 kts | 216° |
| 2026-04-20 02:47 | 37.92346 | 23.92498 | 302 ft | 22 kts | 217° |
| 2026-04-20 02:48 | 37.92221 | 23.92383 | 301 ft | 22 kts | 217° |
| 2026-04-20 02:48 | 37.92100 | 23.92265 | 300 ft | 22 kts | 217° |
| 2026-04-20 02:48 | 37.91990 | 23.92149 | 301 ft | 18 kts | 240° |
| 2026-04-20 02:48 | 37.92001 | 23.92021 | 303 ft | 14 kts | 303° |
| 2026-04-20 02:49 | 37.92078 | 23.91954 | 303 ft | 14 kts | 350° |
| 2026-04-20 02:49 | 37.92194 | 23.91946 | 305 ft | 22 kts | 16° |
| 2026-04-20 02:49 | 37.92446 | 23.92176 | 302 ft | 80 kts | 38° |
| 2026-04-20 02:49 | 37.93088 | 23.92784 | 291 ft | 150 kts | 37° |
| 2026-04-20 02:50 | 37.94085 | 23.93713 | 480 ft | 196 kts | 35° |
| 2026-04-20 02:50 | 37.95264 | 23.94752 | 1244 ft | 218 kts | 34° |
| 2026-04-20 02:50 | 37.96544 | 23.95942 | 2145 ft | 233 kts | 37° |
| 2026-04-20 02:50 | 37.97814 | 23.97225 | 3346 ft | 235 kts | 37° |
| 2026-04-20 02:51 | 37.99126 | 23.98527 | 4502 ft | 248 kts | 36° |
| 2026-04-20 02:51 | 38.00571 | 23.99927 | 5392 ft | 269 kts | 36° |
| 2026-04-20 02:51 | 38.02054 | 24.01354 | 6710 ft | 273 kts | 36° |
| 2026-04-20 02:51 | 38.03567 | 24.02816 | 8014 ft | 275 kts | 36° |
| 2026-04-20 02:52 | 38.05067 | 24.04342 | 9294 ft | 278 kts | 44° |
| 2026-04-20 02:52 | 38.06068 | 24.06459 | 10382 ft | 291 kts | 69° |
| 2026-04-20 02:52 | 38.06630 | 24.08990 | 11217 ft | 306 kts | 73° |
| 2026-04-20 02:52 | 38.07190 | 24.11655 | 12112 ft | 318 kts | 72° |
| 2026-04-20 02:53 | 38.07792 | 24.14393 | 13090 ft | 327 kts | 72° |
| 2026-04-20 02:53 | 38.08417 | 24.17201 | 14041 ft | 335 kts | 72° |
| 2026-04-20 02:53 | 38.09053 | 24.20078 | 14932 ft | 342 kts | 72° |
| 2026-04-20 02:53 | 38.09695 | 24.23015 | 15858 ft | 348 kts | 72° |
| 2026-04-20 02:54 | 38.10341 | 24.25994 | 16743 ft | 354 kts | 72° |
| 2026-04-20 02:54 | 38.10994 | 24.29036 | 17617 ft | 360 kts | 73° |
| 2026-04-20 02:54 | 38.11652 | 24.32133 | 18440 ft | 366 kts | 73° |
| 2026-04-20 02:54 | 38.12312 | 24.35278 | 19193 ft | 370 kts | 73° |
| 2026-04-20 02:55 | 38.12975 | 24.38459 | 19957 ft | 374 kts | 73° |
| 2026-04-20 02:55 | 38.13637 | 24.41668 | 20750 ft | 377 kts | 73° |
| 2026-04-20 02:55 | 38.14298 | 24.44913 | 21473 ft | 382 kts | 73° |
| 2026-04-20 02:55 | 38.14961 | 24.48200 | 22181 ft | 386 kts | 73° |
| 2026-04-20 02:56 | 38.15918 | 24.51376 | 22824 ft | 385 kts | 55° |
| 2026-04-20 02:56 | 38.17706 | 24.53837 | 23473 ft | 378 kts | 30° |
| 2026-04-20 02:56 | 38.20064 | 24.55217 | 24069 ft | 373 kts | 11° |
| 2026-04-20 02:56 | 38.22621 | 24.55578 | 24593 ft | 370 kts | 355° |
| 2026-04-20 02:57 | 38.25203 | 24.55432 | 25126 ft | 373 kts | 354° |
| 2026-04-20 02:57 | 38.27810 | 24.55279 | 25657 ft | 377 kts | 354° |
| 2026-04-20 02:57 | 38.30437 | 24.55104 | 26195 ft | 379 kts | 354° |
| 2026-04-20 02:57 | 38.33077 | 24.54892 | 26704 ft | 382 kts | 353° |
| 2026-04-20 02:58 | 38.35740 | 24.54642 | 27208 ft | 385 kts | 352° |
| 2026-04-20 02:58 | 38.38421 | 24.54363 | 27698 ft | 388 kts | 352° |
| 2026-04-20 02:58 | 38.41123 | 24.54056 | 28177 ft | 391 kts | 352° |
| 2026-04-20 02:58 | 38.43842 | 24.53724 | 28647 ft | 394 kts | 352° |
| 2026-04-20 02:59 | 38.46589 | 24.53457 | 29107 ft | 398 kts | 353° |
| 2026-04-20 02:59 | 38.49362 | 24.53238 | 29550 ft | 401 kts | 353° |
| 2026-04-20 02:59 | 38.52118 | 24.53014 | 29983 ft | 404 kts | 353° |
| 2026-04-20 02:59 | 38.54925 | 24.52780 | 30350 ft | 407 kts | 353° |
| 2026-04-20 03:00 | 38.57760 | 24.52541 | 30687 ft | 409 kts | 353° |
| 2026-04-20 03:00 | 38.60614 | 24.52296 | 31021 ft | 412 kts | 353° |
| 2026-04-20 03:00 | 38.63483 | 24.52051 | 31355 ft | 415 kts | 353° |
| 2026-04-20 03:00 | 38.66374 | 24.51815 | 31679 ft | 418 kts | 353° |
| 2026-04-20 03:01 | 38.69284 | 24.51574 | 31994 ft | 421 kts | 353° |
| 2026-04-20 03:01 | 38.72216 | 24.51330 | 32284 ft | 423 kts | 353° |
| 2026-04-20 03:01 | 38.75154 | 24.51087 | 32702 ft | 423 kts | 353° |
| 2026-04-20 03:01 | 38.78087 | 24.50847 | 33129 ft | 422 kts | 353° |
| 2026-04-20 03:02 | 38.81016 | 24.50602 | 33537 ft | 421 kts | 353° |
| 2026-04-20 03:02 | 38.83943 | 24.50358 | 33900 ft | 422 kts | 353° |
| 2026-04-20 03:02 | 38.86865 | 24.50114 | 34238 ft | 421 kts | 353° |
| 2026-04-20 03:02 | 38.89793 | 24.49869 | 34575 ft | 420 kts | 353° |
| 2026-04-20 03:03 | 38.92705 | 24.49626 | 34895 ft | 420 kts | 353° |
| 2026-04-20 03:03 | 38.95581 | 24.49105 | 35151 ft | 415 kts | 340° |
| 2026-04-20 03:03 | 38.98178 | 24.47579 | 35389 ft | 409 kts | 323° |
| 2026-04-20 03:03 | 39.00296 | 24.45180 | 35660 ft | 404 kts | 309° |
| 2026-04-20 03:04 | 39.02124 | 24.42448 | 35943 ft | 403 kts | 309° |
| 2026-04-20 03:04 | 39.03937 | 24.39719 | 36225 ft | 403 kts | 309° |
| 2026-04-20 03:04 | 39.05755 | 24.36935 | 36224 ft | 409 kts | 308° |
| 2026-04-20 03:04 | 39.07591 | 24.34084 | 36102 ft | 419 kts | 308° |
| 2026-04-20 03:05 | 39.09461 | 24.31153 | 36054 ft | 426 kts | 308° |
| 2026-04-20 03:05 | 39.13296 | 24.25186 | 36042 ft | 439 kts | 308° |
| 2026-04-20 03:06 | 39.17239 | 24.19043 | 36037 ft | 451 kts | 308° |
| 2026-04-20 03:06 | 39.19241 | 24.15920 | 35756 ft | 453 kts | 308° |
| 2026-04-20 03:06 | 39.21218 | 24.12813 | 35325 ft | 443 kts | 308° |
| 2026-04-20 03:06 | 39.23148 | 24.09780 | 34894 ft | 432 kts | 308° |
| 2026-04-20 03:07 | 39.25037 | 24.06819 | 34480 ft | 422 kts | 308° |
| 2026-04-20 03:07 | 39.26860 | 24.03967 | 34245 ft | 411 kts | 308° |
| 2026-04-20 03:07 | 39.28668 | 24.01147 | 34514 ft | 406 kts | 308° |
| 2026-04-20 03:07 | 39.30703 | 23.98564 | 34749 ft | 408 kts | 322° |
| 2026-04-20 03:08 | 39.33017 | 23.96518 | 34930 ft | 409 kts | 324° |
| 2026-04-20 03:08 | 39.35407 | 23.94495 | 35047 ft | 412 kts | 324° |
| 2026-04-20 03:08 | 39.37821 | 23.92458 | 35076 ft | 417 kts | 324° |
| 2026-04-20 03:09 | 39.42731 | 23.88307 | 35143 ft | 426 kts | 324° |
| 2026-04-20 03:09 | 39.47718 | 23.84080 | 35309 ft | 432 kts | 324° |
| 2026-04-20 03:09 | 39.50231 | 23.81944 | 35484 ft | 432 kts | 324° |
| 2026-04-20 03:10 | 39.52742 | 23.79810 | 35699 ft | 431 kts | 324° |
| 2026-04-20 03:10 | 39.55249 | 23.77676 | 35912 ft | 431 kts | 324° |
| 2026-04-20 03:10 | 39.57754 | 23.75542 | 36106 ft | 430 kts | 324° |
| 2026-04-20 03:11 | 39.62707 | 23.71320 | 36138 ft | 425 kts | 324° |
| 2026-04-20 03:11 | 39.67673 | 23.67081 | 36159 ft | 429 kts | 324° |
| 2026-04-20 03:12 | 39.72658 | 23.62820 | 36176 ft | 429 kts | 324° |
| 2026-04-20 03:12 | 39.77653 | 23.58541 | 36149 ft | 430 kts | 324° |
| 2026-04-20 03:13 | 39.82637 | 23.54265 | 36127 ft | 429 kts | 324° |
| 2026-04-20 03:13 | 39.87612 | 23.49988 | 36135 ft | 429 kts | 324° |
| 2026-04-20 03:14 | 39.92597 | 23.45707 | 36134 ft | 429 kts | 325° |
| 2026-04-20 03:14 | 39.97577 | 23.41420 | 36136 ft | 428 kts | 324° |
| 2026-04-20 03:15 | 40.02514 | 23.37081 | 36137 ft | 428 kts | 324° |
| 2026-04-20 03:15 | 40.07444 | 23.32727 | 36131 ft | 428 kts | 324° |
| 2026-04-20 03:16 | 40.12373 | 23.28375 | 36138 ft | 428 kts | 324° |
| 2026-04-20 03:16 | 40.17314 | 23.24019 | 36139 ft | 428 kts | 324° |
| 2026-04-20 03:17 | 40.22261 | 23.19696 | 36152 ft | 428 kts | 324° |
| 2026-04-20 03:17 | 40.27194 | 23.15372 | 36138 ft | 430 kts | 324° |
| 2026-04-20 03:18 | 40.32159 | 23.11011 | 36144 ft | 429 kts | 324° |
| 2026-04-20 03:18 | 40.37097 | 23.06664 | 36145 ft | 427 kts | 324° |
| 2026-04-20 03:19 | 40.42034 | 23.02312 | 36152 ft | 428 kts | 324° |
| 2026-04-20 03:19 | 40.46611 | 22.97416 | 36174 ft | 425 kts | 308° |
| 2026-04-20 03:20 | 40.50240 | 22.91265 | 36141 ft | 425 kts | 307° |
| 2026-04-20 03:20 | 40.53846 | 22.85108 | 36146 ft | 425 kts | 307° |
| 2026-04-20 03:21 | 40.57445 | 22.78937 | 36146 ft | 425 kts | 307° |
| 2026-04-20 03:21 | 40.61026 | 22.72783 | 36141 ft | 423 kts | 307° |
| 2026-04-20 03:21 | 40.62797 | 22.69735 | 36123 ft | 411 kts | 307° |
| 2026-04-20 03:22 | 40.64497 | 22.66808 | 36073 ft | 393 kts | 307° |
| 2026-04-20 03:22 | 40.66121 | 22.64007 | 35940 ft | 379 kts | 307° |
| 2026-04-20 03:22 | 40.67749 | 22.61201 | 34621 ft | 394 kts | 307° |
| 2026-04-20 03:22 | 40.69435 | 22.58290 | 33839 ft | 397 kts | 307° |
| 2026-04-20 03:23 | 40.71084 | 22.55440 | 33330 ft | 390 kts | 307° |
| 2026-04-20 03:23 | 40.72709 | 22.52622 | 32873 ft | 382 kts | 307° |
| 2026-04-20 03:23 | 40.74305 | 22.49855 | 32344 ft | 376 kts | 307° |
| 2026-04-20 03:23 | 40.75874 | 22.47129 | 31887 ft | 370 kts | 307° |
| 2026-04-20 03:24 | 40.77431 | 22.44426 | 31374 ft | 369 kts | 307° |
| 2026-04-20 03:24 | 40.78990 | 22.41722 | 30898 ft | 374 kts | 307° |
| 2026-04-20 03:24 | 40.80583 | 22.38966 | 30388 ft | 381 kts | 307° |
| 2026-04-20 03:24 | 40.82200 | 22.36162 | 29837 ft | 386 kts | 307° |
| 2026-04-20 03:25 | 40.83805 | 22.33378 | 29392 ft | 386 kts | 307° |
| 2026-04-20 03:25 | 40.85437 | 22.30543 | 28844 ft | 388 kts | 307° |
| 2026-04-20 03:25 | 40.87073 | 22.27699 | 28334 ft | 390 kts | 307° |
| 2026-04-20 03:25 | 40.88713 | 22.24845 | 27828 ft | 391 kts | 307° |
| 2026-04-20 03:26 | 40.90356 | 22.21983 | 27291 ft | 390 kts | 307° |
| 2026-04-20 03:26 | 40.91990 | 22.19134 | 26786 ft | 387 kts | 307° |
| 2026-04-20 03:26 | 40.93607 | 22.16312 | 26276 ft | 383 kts | 307° |
| 2026-04-20 03:26 | 40.95210 | 22.13513 | 25770 ft | 380 kts | 307° |
| 2026-04-20 03:27 | 40.96791 | 22.10748 | 25266 ft | 375 kts | 307° |
| 2026-04-20 03:27 | 40.98354 | 22.08014 | 24778 ft | 370 kts | 307° |
| 2026-04-20 03:27 | 40.99898 | 22.05308 | 24291 ft | 366 kts | 307° |
| 2026-04-20 03:27 | 41.01428 | 22.02626 | 23807 ft | 364 kts | 307° |
| 2026-04-20 03:28 | 41.02948 | 21.99960 | 23292 ft | 361 kts | 307° |
| 2026-04-20 03:28 | 41.04446 | 21.97324 | 22862 ft | 356 kts | 307° |
| 2026-04-20 03:28 | 41.07432 | 21.92079 | 21909 ft | 356 kts | 307° |
| 2026-04-20 03:29 | 41.08912 | 21.89464 | 21440 ft | 353 kts | 306° |
| 2026-04-20 03:29 | 41.10368 | 21.86853 | 20965 ft | 352 kts | 306° |
| 2026-04-20 03:29 | 41.11822 | 21.84247 | 20505 ft | 350 kts | 306° |
| 2026-04-20 03:29 | 41.13263 | 21.81661 | 20037 ft | 347 kts | 306° |
| 2026-04-20 03:30 | 41.14695 | 21.79094 | 19582 ft | 345 kts | 306° |
| 2026-04-20 03:30 | 41.16117 | 21.76547 | 19126 ft | 342 kts | 306° |
| 2026-04-20 03:30 | 41.17524 | 21.74029 | 18677 ft | 339 kts | 306° |
| 2026-04-20 03:30 | 41.18924 | 21.71517 | 18205 ft | 337 kts | 306° |
| 2026-04-20 03:31 | 41.20305 | 21.69037 | 17777 ft | 332 kts | 306° |
| 2026-04-20 03:31 | 41.21677 | 21.66575 | 17332 ft | 332 kts | 306° |
| 2026-04-20 03:31 | 41.23044 | 21.64113 | 16903 ft | 330 kts | 306° |
| 2026-04-20 03:31 | 41.24410 | 21.61660 | 16462 ft | 329 kts | 306° |
| 2026-04-20 03:32 | 41.25767 | 21.59213 | 16007 ft | 328 kts | 306° |
| 2026-04-20 03:32 | 41.27113 | 21.56787 | 15581 ft | 326 kts | 306° |
| 2026-04-20 03:32 | 41.28010 | 21.55191 | 15299 ft | 325 kts | 306° |
| 2026-04-20 03:32 | 41.29350 | 21.52776 | 14869 ft | 322 kts | 306° |
| 2026-04-20 03:33 | 41.30667 | 21.50389 | 14295 ft | 321 kts | 307° |
| 2026-04-20 03:33 | 41.32290 | 21.48401 | 13892 ft | 317 kts | 329° |
| 2026-04-20 03:33 | 41.34381 | 21.47597 | 13498 ft | 315 kts | 355° |
| 2026-04-20 03:33 | 41.36519 | 21.48093 | 13086 ft | 316 kts | 21° |
| 2026-04-20 03:34 | 41.38896 | 21.50293 | 12544 ft | 313 kts | 37° |
| 2026-04-20 03:34 | 41.39995 | 21.51504 | 12237 ft | 312 kts | 37° |
| 2026-04-20 03:34 | 41.41697 | 21.53364 | 11843 ft | 308 kts | 37° |
| 2026-04-20 03:34 | 41.43362 | 21.55153 | 11413 ft | 306 kts | 37° |
| 2026-04-20 03:35 | 41.45011 | 21.56918 | 11011 ft | 303 kts | 37° |
| 2026-04-20 03:35 | 41.46651 | 21.58669 | 10617 ft | 301 kts | 37° |
| 2026-04-20 03:35 | 41.48282 | 21.60409 | 10212 ft | 299 kts | 37° |
| 2026-04-20 03:35 | 41.49897 | 21.62138 | 9826 ft | 297 kts | 37° |
| 2026-04-20 03:36 | 41.51491 | 21.63872 | 9427 ft | 294 kts | 37° |
| 2026-04-20 03:36 | 41.53069 | 21.65576 | 9055 ft | 290 kts | 36° |
| 2026-04-20 03:36 | 41.54644 | 21.67238 | 8672 ft | 288 kts | 36° |
| 2026-04-20 03:36 | 41.56207 | 21.68894 | 8285 ft | 286 kts | 37° |
| 2026-04-20 03:37 | 41.57755 | 21.70550 | 7898 ft | 284 kts | 37° |
| 2026-04-20 03:37 | 41.59166 | 21.72067 | 7563 ft | 282 kts | 37° |
| 2026-04-20 03:37 | 41.60804 | 21.73457 | 7185 ft | 276 kts | 16° |
| 2026-04-20 03:37 | 41.62664 | 21.73628 | 6874 ft | 267 kts | 348° |
| 2026-04-20 03:38 | 41.64437 | 21.73025 | 6526 ft | 267 kts | 340° |
| 2026-04-20 03:38 | 41.66240 | 21.72272 | 6127 ft | 268 kts | 341° |
| 2026-04-20 03:38 | 41.68033 | 21.71618 | 5792 ft | 267 kts | 346° |
| 2026-04-20 03:38 | 41.69878 | 21.71271 | 5461 ft | 268 kts | 351° |
| 2026-04-20 03:39 | 41.71690 | 21.70740 | 5141 ft | 266 kts | 341° |
| 2026-04-20 03:39 | 41.73440 | 21.69998 | 4890 ft | 261 kts | 342° |
| 2026-04-20 03:39 | 41.75190 | 21.69443 | 4631 ft | 253 kts | 346° |
| 2026-04-20 03:39 | 41.76841 | 21.68910 | 4317 ft | 242 kts | 343° |
| 2026-04-20 03:40 | 41.78434 | 21.68313 | 4006 ft | 234 kts | 342° |
| 2026-04-20 03:40 | 41.79994 | 21.67773 | 3685 ft | 229 kts | 345° |
| 2026-04-20 03:40 | 41.81517 | 21.67254 | 3386 ft | 223 kts | 344° |
| 2026-04-20 03:40 | 41.82978 | 21.66752 | 3089 ft | 210 kts | 344° |
| 2026-04-20 03:41 | 41.84359 | 21.66263 | 2783 ft | 200 kts | 345° |
| 2026-04-20 03:41 | 41.85659 | 21.65808 | 2521 ft | 185 kts | 345° |
| 2026-04-20 03:41 | 41.86835 | 21.65374 | 2358 ft | 167 kts | 344° |
| 2026-04-20 03:41 | 41.87930 | 21.64951 | 2212 ft | 161 kts | 344° |
| 2026-04-20 03:42 | 41.88982 | 21.64595 | 2120 ft | 150 kts | 346° |
| 2026-04-20 03:42 | 41.89953 | 21.64251 | 2008 ft | 142 kts | 345° |
| 2026-04-20 03:42 | 41.90907 | 21.63915 | 1821 ft | 142 kts | 345° |
| 2026-04-20 03:42 | 41.91870 | 21.63607 | 1569 ft | 143 kts | 346° |
| 2026-04-20 03:43 | 41.92831 | 21.63285 | 1317 ft | 143 kts | 346° |
| 2026-04-20 03:43 | 41.93777 | 21.62958 | 1102 ft | 138 kts | 346° |
| 2026-04-20 03:43 | 41.94697 | 21.62650 | 900 ft | 135 kts | 346° |
| 2026-04-20 03:43 | 41.95590 | 21.62337 | 784 ft | 125 kts | 345° |
| 2026-04-20 03:44 | 41.96308 | 21.62092 | 788 ft | 72 kts | 345° |
| 2026-04-20 03:44 | 41.96509 | 21.62114 | 790 ft | 13 kts | 83° |
| 2026-04-20 03:44 | 41.96527 | 21.62233 | 791 ft | 13 kts | 81° |
| 2026-04-20 03:44 | 41.96468 | 21.62305 | 791 ft | 13 kts | 165° |
| 2026-04-20 03:45 | 41.96372 | 21.62341 | 791 ft | 15 kts | 164° |
| 2026-04-20 03:45 | 41.96263 | 21.62375 | 790 ft | 17 kts | 166° |
| 2026-04-20 03:45 | 41.96147 | 21.62416 | 790 ft | 16 kts | 162° |
| 2026-04-20 03:45 | 41.96134 | 21.62509 | 792 ft | 10 kts | 75° |
| 2026-04-20 03:46 | 41.96144 | 21.62563 | 792 ft | 0 kts | 75° |